Time;durP1;ratioP1;P1;durP2;ratioP2;P2;SDS_P1;SDS_P2;PMS_P1;PMS_P2;Temp;Humidity;BMP_temperature;BMP_pressure;BME280_temperature;BME280_humidity;BME280_pressure;Samples;Min_cycle;Max_cycle;Signal;HPM_P1;HPM_P2
2021/12/30 00:00:18;;;;;;;114.20;57.50;;;;;;;0.89;89.62;98020.36;102626;1327;24239;-81
2021/12/30 00:03:05;;;;;;;110.20;55.20;;;;;;;0.89;89.84;98018.59;102587;1330;137650;-81
2021/12/30 00:05:33;;;;;;;118.10;59.50;;;;;;;0.86;89.42;98022.81;102232;1333;22833;-81
2021/12/30 00:07:59;;;;;;;109.40;56.80;;;;;;;0.86;89.84;98026.11;102335;1333;138699;-81
2021/12/30 00:10:25;;;;;;;109.40;55.70;;;;;;;0.87;89.61;98026.01;102812;1330;22607;-80
2021/12/30 00:12:53;;;;;;;106.30;55.00;;;;;;;0.87;89.53;98022.88;102798;1330;22759;-81
2021/12/30 00:15:20;;;;;;;110.30;57.30;;;;;;;0.89;89.72;98025.52;102482;1328;378652;-81
2021/12/30 00:17:46;;;;;;;107.70;56.30;;;;;;;0.92;89.93;98034.08;102774;1327;22800;-81
2021/12/30 00:20:14;;;;;;;111.50;59.80;;;;;;;0.92;89.82;98036.36;102396;1325;138256;-81
2021/12/30 00:22:42;;;;;;;108.50;56.30;;;;;;;0.92;89.49;98036.20;102822;1328;22649;-81
2021/12/30 00:25:10;;;;;;;105.90;53.50;;;;;;;0.92;89.47;98046.95;102590;1327;22739;-80
2021/12/30 00:27:37;;;;;;;97.70;53.40;;;;;;;0.89;89.31;98054.57;102522;1327;137976;-80
2021/12/30 00:30:07;;;;;;;103.00;51.80;;;;;;;0.87;89.20;98052.92;102503;1332;25295;-81
2021/12/30 00:32:34;;;;;;;110.10;56.00;;;;;;;0.82;89.38;98057.13;102359;1332;138029;-80
2021/12/30 00:35:03;;;;;;;104.00;52.10;;;;;;;0.81;89.52;98058.56;102646;1324;22596;-82
2021/12/30 00:37:30;;;;;;;101.10;51.30;;;;;;;0.81;89.49;98055.64;102596;1326;22617;-81
2021/12/30 00:39:56;;;;;;;99.50;48.50;;;;;;;0.84;89.76;98056.48;102600;1325;138048;-81
2021/12/30 00:42:22;;;;;;;97.50;50.80;;;;;;;0.84;89.72;98057.77;102590;1327;22623;-81
2021/12/30 00:44:48;;;;;;;98.80;51.60;;;;;;;0.83;89.58;98056.52;102683;1330;137685;-81
2021/12/30 00:47:14;;;;;;;106.00;55.50;;;;;;;0.82;89.78;98054.33;102648;1333;24460;-81
2021/12/30 00:49:42;;;;;;;112.90;54.00;;;;;;;0.83;89.70;98053.67;102670;1327;22605;-81
2021/12/30 00:52:08;;;;;;;98.00;50.10;;;;;;;0.83;89.51;98055.98;102311;1330;138219;-81
2021/12/30 00:54:49;;;;;;;102.90;53.60;;;;;;;0.81;89.35;98061.58;102891;1324;25419;-81
2021/12/30 00:57:15;;;;;;;96.00;49.90;;;;;;;0.80;89.62;98058.54;102743;1324;137710;-81
2021/12/30 00:59:44;;;;;;;110.00;56.90;;;;;;;0.79;89.63;98061.10;102735;1324;26597;-81
2021/12/30 01:02:11;;;;;;;113.00;56.20;;;;;;;0.79;89.66;98057.06;102554;1333;139404;-81
2021/12/30 01:04:37;;;;;;;97.80;52.50;;;;;;;0.79;89.67;98058.09;102337;1332;22597;-81
2021/12/30 01:07:03;;;;;;;108.90;53.10;;;;;;;0.81;89.58;98058.33;102652;1330;23989;-81
2021/12/30 01:09:30;;;;;;;104.20;52.00;;;;;;;0.84;89.81;98065.61;102595;1328;137722;-81
2021/12/30 01:11:58;;;;;;;102.60;52.50;;;;;;;0.84;89.53;98066.30;102680;1325;22602;-81
2021/12/30 01:14:28;;;;;;;100.20;50.20;;;;;;;0.83;89.47;98065.18;102482;1330;139566;-81
2021/12/30 01:16:58;;;;;;;98.90;49.90;;;;;;;0.83;89.63;98063.66;102685;1332;22737;-83
2021/12/30 01:22:21;;;;;;;111.70;52.30;;;;;;;0.87;89.93;98060.27;102659;1332;137595;-81
2021/12/30 01:24:48;;;;;;;114.20;57.80;;;;;;;0.88;89.81;98063.24;102598;1333;22671;-81
2021/12/30 01:27:15;;;;;;;106.60;53.50;;;;;;;0.89;89.68;98067.38;102662;1331;138586;-81
2021/12/30 01:29:41;;;;;;;99.80;51.90;;;;;;;0.92;89.84;98065.92;102626;1327;23963;-80
2021/12/30 01:32:09;;;;;;;102.00;53.20;;;;;;;0.95;89.76;98065.54;102453;1333;138544;-81
2021/12/30 01:34:36;;;;;;;99.60;51.90;;;;;;;0.96;89.50;98066.11;102577;1330;22763;-81
2021/12/30 01:37:04;;;;;;;103.20;52.50;;;;;;;0.94;89.47;98068.70;102412;1331;24315;-81
2021/12/30 01:39:34;;;;;;;108.30;55.90;;;;;;;0.92;89.55;98072.08;102660;1333;138294;-81
2021/12/30 01:42:00;;;;;;;100.40;51.70;;;;;;;0.91;89.42;98073.46;102786;1330;25338;-81
2021/12/30 01:44:32;;;;;;;103.70;51.40;;;;;;;0.90;89.20;98081.30;102558;1330;139159;-81
2021/12/30 01:46:59;;;;;;;107.10;51.90;;;;;;;0.88;89.23;98087.05;102671;1331;25350;-81
2021/12/30 01:49:26;;;;;;;102.30;52.40;;;;;;;0.86;89.31;98092.17;102373;1331;24783;-81
2021/12/30 01:51:53;;;;;;;108.30;54.40;;;;;;;0.85;89.37;98095.79;102830;1324;137817;-81
2021/12/30 01:54:21;;;;;;;109.80;51.50;;;;;;;0.84;89.43;98091.95;102732;1324;24232;-81
2021/12/30 01:56:50;;;;;;;97.10;49.90;;;;;;;0.84;89.26;98093.19;102364;1324;138116;-81
2021/12/30 01:59:19;;;;;;;101.30;50.00;;;;;;;0.85;89.59;98092.63;102773;1332;22574;-81
2021/12/30 02:01:45;;;;;;;97.00;49.00;;;;;;;0.88;89.54;98084.48;102870;1331;25454;-81
2021/12/30 02:04:13;;;;;;;94.70;46.60;;;;;;;0.84;89.33;98079.00;102453;1330;137753;-81
2021/12/30 02:06:40;;;;;;;96.30;50.40;;;;;;;0.83;89.54;98076.80;102768;1327;22662;-81
2021/12/30 02:09:06;;;;;;;88.20;45.70;;;;;;;0.84;89.53;98069.70;102664;1330;138205;-81
2021/12/30 02:11:32;;;;;;;81.80;44.40;;;;;;;0.84;89.24;98061.35;102843;1330;22615;-81
2021/12/30 02:13:58;;;;;;;90.30;45.50;;;;;;;0.81;89.31;98065.70;102635;1331;137796;-81
2021/12/30 02:16:27;;;;;;;95.00;47.00;;;;;;;0.80;89.54;98065.94;102744;1332;24241;-80
2021/12/30 02:18:54;;;;;;;97.80;50.40;;;;;;;0.80;89.57;98066.91;102934;1324;24271;-81
2021/12/30 02:21:20;;;;;;;97.60;50.00;;;;;;;0.79;89.63;98067.15;102799;1332;138550;-81
2021/12/30 02:23:48;;;;;;;91.60;46.50;;;;;;;0.79;89.48;98067.77;102714;1331;22623;-81
2021/12/30 02:26:19;;;;;;;101.40;46.20;;;;;;;0.77;89.41;98070.11;102668;1330;137866;-81
2021/12/30 02:28:46;;;;;;;96.80;49.80;;;;;;;0.74;89.57;98075.95;102563;1326;22679;-81
2021/12/30 02:31:20;;;;;;;101.20;54.20;;;;;;;0.74;89.65;98076.55;102745;1330;22583;-81
2021/12/30 02:33:48;;;;;;;105.80;50.60;;;;;;;0.74;89.64;98079.70;102785;1330;138882;-81
2021/12/30 02:36:17;;;;;;;101.40;49.90;;;;;;;0.74;89.68;98077.27;102424;1330;25361;-81
2021/12/30 02:38:46;;;;;;;90.80;49.00;;;;;;;0.74;89.60;98078.98;102498;1332;137786;-81
2021/12/30 02:41:19;;;;;;;93.80;45.70;;;;;;;0.73;89.60;98077.54;102444;1333;25269;-81
2021/12/30 02:43:48;;;;;;;90.80;46.70;;;;;;;0.71;89.43;98086.42;102655;1332;22694;-81
2021/12/30 02:46:15;;;;;;;90.20;46.40;;;;;;;0.66;89.16;98086.30;102457;1330;137820;-81
2021/12/30 02:48:42;;;;;;;100.00;47.90;;;;;;;0.62;89.29;98086.75;102553;1330;22619;-81
2021/12/30 02:51:11;;;;;;;99.70;48.40;;;;;;;0.61;89.18;98091.92;102241;1333;138690;-81
2021/12/30 02:53:38;;;;;;;95.90;47.10;;;;;;;0.61;89.53;98091.59;102605;1330;22620;-81
2021/12/30 02:56:06;;;;;;;96.80;47.90;;;;;;;0.64;90.19;98086.19;102131;1333;138468;-82
2021/12/30 02:58:47;;;;;;;96.70;47.50;;;;;;;0.68;90.26;98079.02;102348;1330;23405;-82
2021/12/30 03:01:20;;;;;;;107.30;51.30;;;;;;;0.69;89.83;98071.67;102336;1331;24257;-82
2021/12/30 03:03:47;;;;;;;91.40;49.60;;;;;;;0.66;89.32;98066.50;102536;1330;139075;-82
2021/12/30 03:06:15;;;;;;;101.80;50.00;;;;;;;0.62;89.17;98058.39;102419;1333;26766;-82
2021/12/30 03:08:43;;;;;;;98.00;47.40;;;;;;;0.60;89.28;98060.63;102334;1331;137936;-82
2021/12/30 03:11:10;;;;;;;97.20;48.40;;;;;;;0.56;89.16;98059.84;102448;1330;22670;-82
2021/12/30 03:13:41;;;;;;;103.50;52.50;;;;;;;0.52;89.12;98058.91;102604;1332;25230;-82
2021/12/30 03:16:12;;;;;;;117.60;57.00;;;;;;;0.46;89.03;98063.71;102455;1331;138047;-83
2021/12/30 03:18:40;;;;;;;104.90;53.60;;;;;;;0.42;89.16;98070.38;102555;1333;22829;-86
2021/12/30 03:21:23;;;;;;;108.80;53.20;;;;;;;0.38;88.99;98073.87;102494;1332;137987;-84
2021/12/30 03:23:50;;;;;;;113.20;55.10;;;;;;;0.36;89.19;98072.35;102560;1327;22606;-84
2021/12/30 03:26:20;;;;;;;109.50;55.50;;;;;;;0.34;89.34;98075.90;102275;1333;138634;-83
2021/12/30 03:28:47;;;;;;;120.50;56.50;;;;;;;0.34;89.97;98080.89;102453;1328;22609;-84
2021/12/30 03:31:16;;;;;;;118.40;55.70;;;;;;;0.38;90.24;98095.65;102506;1331;22600;-83
2021/12/30 03:33:43;;;;;;;109.00;54.20;;;;;;;0.42;90.21;98107.47;102358;1330;138431;-84
2021/12/30 03:36:11;;;;;;;112.30;56.10;;;;;;;0.47;90.37;98116.34;102545;1331;22602;-83
2021/12/30 03:38:43;;;;;;;108.30;55.80;;;;;;;0.50;90.26;98117.30;102503;1331;137989;-82
2021/12/30 03:41:12;;;;;;;117.50;56.90;;;;;;;0.52;90.43;98115.54;102551;1332;24314;-82
2021/12/30 03:43:39;;;;;;;116.80;54.20;;;;;;;0.54;90.25;98121.12;102494;1325;25376;-82
2021/12/30 03:46:08;;;;;;;99.30;51.20;;;;;;;0.52;90.12;98124.67;102289;1327;138728;-82
2021/12/30 03:48:41;;;;;;;106.50;53.60;;;;;;;0.50;90.21;98130.06;102454;1329;26768;-82
2021/12/30 03:51:21;;;;;;;104.50;52.30;;;;;;;0.53;90.68;98132.33;102276;1333;138121;-82
2021/12/30 03:53:50;;;;;;;105.80;50.70;;;;;;;0.57;90.74;98142.55;102374;1333;25353;-82
2021/12/30 03:56:19;;;;;;;95.40;47.90;;;;;;;0.61;90.56;98142.17;102688;1330;138707;-82
2021/12/30 03:58:46;;;;;;;102.50;49.40;;;;;;;0.63;90.81;98151.92;102895;1330;22606;-82
2021/12/30 04:01:17;;;;;;;92.50;48.70;;;;;;;0.64;90.38;98156.42;102828;1329;26626;-82
2021/12/30 04:03:44;;;;;;;89.00;47.20;;;;;;;0.64;90.29;98154.79;102259;1333;139039;-82
2021/12/30 04:06:11;;;;;;;81.10;43.80;;;;;;;0.62;90.08;98152.87;102588;1330;25454;-82
2021/12/30 04:08:38;;;;;;;85.90;43.20;;;;;;;0.60;90.14;98148.11;102500;1331;137690;-82
2021/12/30 04:11:05;;;;;;;90.60;43.20;;;;;;;0.63;90.53;98148.27;102783;1330;26642;-82
2021/12/30 04:13:32;;;;;;;95.30;46.10;;;;;;;0.66;90.72;98142.89;102717;1330;22697;-82
2021/12/30 04:15:58;;;;;;;82.90;42.90;;;;;;;0.71;90.67;98145.38;102738;1330;138320;-81
2021/12/30 04:18:25;;;;;;;92.80;43.60;;;;;;;0.73;90.47;98140.55;102797;1330;22612;-82
2021/12/30 04:20:51;;;;;;;85.60;41.50;;;;;;;0.77;90.64;98143.52;102520;1330;138489;-82
2021/12/30 04:23:17;;;;;;;83.80;42.30;;;;;;;0.82;90.77;98147.40;102872;1329;25270;-82
2021/12/30 04:25:44;;;;;;;88.20;42.00;;;;;;;0.84;90.78;98150.84;102585;1330;22690;-82
2021/12/30 04:28:10;;;;;;;86.40;44.80;;;;;;;0.86;90.51;98148.35;102398;1333;137423;-82
2021/12/30 04:30:37;;;;;;;86.70;43.20;;;;;;;0.86;90.61;98148.48;102681;1329;22760;-82
2021/12/30 04:33:04;;;;;;;87.40;41.80;;;;;;;0.88;90.30;98150.89;102668;1331;138549;-82
2021/12/30 04:35:31;;;;;;;83.60;41.40;;;;;;;0.88;90.17;98162.48;102735;1328;25447;-82
2021/12/30 04:37:57;;;;;;;79.70;40.50;;;;;;;0.89;90.31;98169.00;102559;1327;137716;-81
2021/12/30 04:40:24;;;;;;;79.00;41.90;;;;;;;0.88;90.09;98171.30;102790;1330;22603;-82
2021/12/30 04:42:50;;;;;;;85.80;41.00;;;;;;;0.84;89.90;98179.46;102676;1331;22756;-82
2021/12/30 04:45:16;;;;;;;79.80;40.00;;;;;;;0.80;89.87;98175.21;102634;1330;138248;-82
2021/12/30 04:47:42;;;;;;;73.80;38.40;;;;;;;0.79;90.34;98174.17;102286;1327;22612;-82
2021/12/30 04:50:12;;;;;;;79.00;38.90;;;;;;;0.84;90.67;98178.63;102242;1333;138325;-81
2021/12/30 04:52:41;;;;;;;78.10;37.40;;;;;;;0.88;91.18;98181.58;102687;1327;22645;-81
2021/12/30 04:55:08;;;;;;;78.10;38.20;;;;;;;0.94;90.94;98182.86;102752;1330;24265;-81
2021/12/30 04:57:35;;;;;;;75.30;40.40;;;;;;;0.99;91.07;98184.77;102726;1324;137741;-81
2021/12/30 05:00:06;;;;;;;78.10;38.90;;;;;;;1.05;91.06;98188.92;102814;1328;22624;-81
2021/12/30 05:02:47;;;;;;;69.50;36.80;;;;;;;1.10;90.93;98190.95;102771;1324;139536;-81
2021/12/30 05:05:14;;;;;;;77.90;40.40;;;;;;;1.17;90.84;98197.98;102696;1329;26646;-81
2021/12/30 05:07:40;;;;;;;78.00;39.90;;;;;;;1.19;90.73;98202.50;102634;1330;24236;-81
2021/12/30 05:10:09;;;;;;;83.00;43.60;;;;;;;1.23;91.06;98200.52;102357;1328;137545;-81
2021/12/30 05:12:35;;;;;;;77.50;41.70;;;;;;;1.29;90.80;98206.77;102594;1331;24459;-80
2021/12/30 05:15:01;;;;;;;79.10;39.20;;;;;;;1.35;90.92;98211.25;102693;1332;137960;-81
2021/12/30 05:17:29;;;;;;;73.70;39.50;;;;;;;1.41;90.71;98210.19;102723;1328;22593;-81
2021/12/30 05:19:56;;;;;;;78.70;38.50;;;;;;;1.47;90.65;98202.60;102728;1324;138420;-81
2021/12/30 05:22:22;;;;;;;79.70;39.30;;;;;;;1.48;90.12;98206.79;102896;1331;25338;-80
2021/12/30 05:24:48;;;;;;;83.20;41.50;;;;;;;1.48;90.19;98210.14;102775;1324;24297;-80
2021/12/30 05:27:16;;;;;;;74.90;39.70;;;;;;;1.49;90.08;98213.77;102476;1330;138477;-80
2021/12/30 05:29:42;;;;;;;73.80;39.40;;;;;;;1.53;90.41;98208.57;102674;1332;22704;-80
2021/12/30 05:32:08;;;;;;;77.90;36.70;;;;;;;1.60;90.16;98208.62;102654;1330;138735;-80
2021/12/30 05:34:35;;;;;;;70.10;36.90;;;;;;;1.61;89.76;98206.33;102458;1327;25386;-80
2021/12/30 05:37:01;;;;;;;70.60;35.80;;;;;;;1.61;89.61;98202.11;102690;1324;22745;-80
2021/12/30 05:39:29;;;;;;;83.30;40.10;;;;;;;1.60;89.60;98204.46;102699;1329;138259;-80
2021/12/30 05:41:56;;;;;;;74.10;37.70;;;;;;;1.59;89.47;98188.42;102856;1324;22723;-81
2021/12/30 05:44:22;;;;;;;73.20;35.30;;;;;;;1.57;89.16;98186.14;102561;1324;138203;-81
2021/12/30 05:46:49;;;;;;;66.90;35.40;;;;;;;1.54;88.96;98183.64;102436;1328;24299;-81
2021/12/30 05:49:15;;;;;;;65.70;33.10;;;;;;;1.51;88.91;98182.70;102537;1333;22616;-81
2021/12/30 05:51:41;;;;;;;68.60;35.60;;;;;;;1.47;88.86;98193.81;102605;1330;137662;-81
2021/12/30 05:54:08;;;;;;;74.40;38.00;;;;;;;1.43;89.00;98199.67;102921;1328;22613;-80
2021/12/30 05:56:34;;;;;;;73.10;37.90;;;;;;;1.40;89.14;98214.55;102528;1328;138553;-81
2021/12/30 05:59:00;;;;;;;73.60;36.90;;;;;;;1.40;89.33;98216.38;102797;1328;22747;-81
2021/12/30 06:01:27;;;;;;;71.90;36.10;;;;;;;1.43;89.46;98211.89;102830;1328;25255;-80
2021/12/30 06:03:53;;;;;;;68.40;34.70;;;;;;;1.44;89.29;98213.48;102641;1330;138652;-81
2021/12/30 06:06:19;;;;;;;67.30;35.00;;;;;;;1.42;89.17;98206.66;102753;1327;22713;-81
2021/12/30 06:08:46;;;;;;;71.90;35.40;;;;;;;1.38;89.06;98200.34;102824;1330;137707;-81
2021/12/30 06:11:17;;;;;;;66.10;32.90;;;;;;;1.34;88.84;98204.91;102462;1327;24322;-81
2021/12/30 06:13:43;;;;;;;62.80;31.00;;;;;;;1.33;88.75;98215.44;102577;1327;22564;-81
2021/12/30 06:16:09;;;;;;;63.90;30.40;;;;;;;1.31;89.02;98222.85;102717;1330;137432;-81
2021/12/30 06:18:36;;;;;;;61.10;32.00;;;;;;;1.31;89.26;98228.48;103244;1325;22680;-81
2021/12/30 06:21:02;;;;;;;70.10;32.70;;;;;;;1.36;89.82;98232.60;103046;1329;138282;-81
2021/12/30 06:23:28;;;;;;;70.80;35.90;;;;;;;1.39;89.55;98238.12;102855;1324;22665;-81
2021/12/30 06:25:55;;;;;;;73.00;38.40;;;;;;;1.44;89.72;98238.54;102944;1324;138496;-81
2021/12/30 06:28:21;;;;;;;67.00;33.70;;;;;;;1.49;89.64;98241.69;102881;1330;23450;-81
2021/12/30 06:30:47;;;;;;;69.60;35.30;;;;;;;1.54;89.41;98243.98;102695;1327;22739;-81
2021/12/30 06:33:14;;;;;;;62.30;32.60;;;;;;;1.58;89.77;98242.50;102659;1328;138101;-81
2021/12/30 06:35:40;;;;;;;70.60;35.00;;;;;;;1.60;89.51;98241.60;103043;1327;23163;-80
2021/12/30 06:38:20;;;;;;;64.90;33.10;;;;;;;1.61;89.52;98249.47;103087;1327;138618;-81
2021/12/30 06:40:47;;;;;;;67.20;34.00;;;;;;;1.62;89.27;98250.95;102677;1328;22623;-81
2021/12/30 06:43:13;;;;;;;62.30;32.70;;;;;;;1.63;89.28;98254.36;102885;1328;22649;-81
2021/12/30 06:45:40;;;;;;;63.80;32.20;;;;;;;1.65;89.40;98252.02;102700;1331;137752;-81
2021/12/30 06:48:07;;;;;;;61.60;32.20;;;;;;;1.64;89.16;98261.05;102368;1331;22600;-80
2021/12/30 06:50:34;;;;;;;60.20;30.00;;;;;;;1.65;89.20;98271.19;102099;1333;137813;-80
2021/12/30 06:53:00;;;;;;;61.10;31.80;;;;;;;1.61;88.63;98275.89;102245;1327;23202;-80
2021/12/30 06:55:26;;;;;;;67.70;34.10;;;;;;;1.49;88.06;98273.55;101901;1331;22796;-80
2021/12/30 06:57:52;;;;;;;66.00;32.90;;;;;;;1.40;88.64;98269.63;102012;1330;138146;-80
2021/12/30 07:00:22;;;;;;;67.90;33.60;;;;;;;1.40;89.06;98270.40;102575;1324;22741;-81
2021/12/30 07:02:48;;;;;;;64.20;33.10;;;;;;;1.40;89.15;98272.67;102459;1324;137710;-82
2021/12/30 07:05:14;;;;;;;68.00;35.20;;;;;;;1.41;89.40;98266.00;102585;1325;22656;-83
2021/12/30 07:07:43;;;;;;;68.90;38.50;;;;;;;1.41;89.41;98273.13;102508;1329;22609;-81
2021/12/30 07:10:10;;;;;;;68.30;35.00;;;;;;;1.44;89.67;98271.64;102531;1330;138087;-80
2021/12/30 07:12:37;;;;;;;67.60;34.50;;;;;;;1.49;89.57;98266.02;102481;1327;25564;-82
2021/12/30 07:15:08;;;;;;;62.80;32.10;;;;;;;1.54;89.60;98261.87;102189;1327;138005;-79
2021/12/30 07:17:34;;;;;;;60.70;32.10;;;;;;;1.58;89.63;98264.67;102410;1329;22612;-80
2021/12/30 07:20:01;;;;;;;64.50;33.10;;;;;;;1.63;89.83;98256.75;102684;1324;138326;-80
2021/12/30 07:22:27;;;;;;;70.30;36.70;;;;;;;1.67;89.70;98259.14;102377;1331;25279;-81
2021/12/30 07:24:56;;;;;;;66.00;33.00;;;;;;;1.74;89.74;98256.50;102385;1326;25260;-81
2021/12/30 07:27:22;;;;;;;62.40;31.50;;;;;;;1.78;89.50;98254.90;102466;1323;137900;-80
2021/12/30 07:29:48;;;;;;;58.50;32.10;;;;;;;1.82;89.50;98257.20;102722;1327;22757;-81
2021/12/30 07:32:15;;;;;;;60.70;32.30;;;;;;;1.86;89.58;98260.42;102543;1328;138322;-80
2021/12/30 07:34:41;;;;;;;68.00;34.90;;;;;;;1.91;89.58;98262.40;102691;1327;25391;-80
2021/12/30 07:37:07;;;;;;;60.90;33.00;;;;;;;1.93;89.22;98261.27;102488;1326;24244;-80
2021/12/30 07:39:34;;;;;;;61.30;31.30;;;;;;;1.95;89.02;98265.86;102467;1327;138588;-80
2021/12/30 07:42:00;;;;;;;57.70;30.70;;;;;;;1.97;88.73;98271.54;102578;1327;22591;-80
2021/12/30 07:44:26;;;;;;;59.90;31.40;;;;;;;1.97;88.67;98275.75;102613;1324;137726;-80
2021/12/30 07:46:52;;;;;;;64.00;33.80;;;;;;;1.97;88.75;98274.98;102629;1324;22588;-80
2021/12/30 07:49:19;;;;;;;65.00;32.90;;;;;;;2.00;88.67;98280.02;103066;1331;22659;-80
2021/12/30 07:51:45;;;;;;;67.10;36.10;;;;;;;2.00;88.44;98282.85;103045;1328;140499;-80
2021/12/30 07:54:12;;;;;;;65.10;34.80;;;;;;;2.03;88.60;98287.04;102877;1327;22638;-80
2021/12/30 07:56:38;;;;;;;63.90;34.30;;;;;;;2.12;88.75;98295.58;103185;1327;138584;-80
2021/12/30 07:59:04;;;;;;;60.30;33.70;;;;;;;2.21;88.91;98294.86;103684;1324;23368;-79
2021/12/30 08:01:31;;;;;;;65.30;33.70;;;;;;;2.27;88.30;98298.26;103315;1324;23523;-80
2021/12/30 08:03:57;;;;;;;65.90;35.80;;;;;;;2.30;88.35;98303.15;103166;1324;137832;-80
2021/12/30 08:06:26;;;;;;;60.10;34.30;;;;;;;2.32;87.94;98306.67;103081;1329;23402;-80
2021/12/30 08:08:53;;;;;;;69.20;35.50;;;;;;;2.32;87.72;98307.02;102852;1329;138461;-79
2021/12/30 08:11:19;;;;;;;66.80;35.50;;;;;;;2.33;87.66;98303.46;103028;1330;22648;-79
2021/12/30 08:13:46;;;;;;;66.30;33.00;;;;;;;2.39;88.00;98301.92;102741;1333;338057;-79
2021/12/30 08:16:37;;;;;;;69.90;38.30;;;;;;;2.46;87.90;98300.48;104940;1334;154833;-77
2021/12/30 08:19:03;;;;;;;73.40;39.30;;;;;;;2.53;87.81;98295.90;105214;1333;23615;-78
2021/12/30 08:21:29;;;;;;;72.20;38.30;;;;;;;2.59;87.63;98288.66;105127;1327;138211;-78
2021/12/30 08:23:55;;;;;;;74.30;39.10;;;;;;;2.64;87.45;98281.13;105268;1328;22568;-78
2021/12/30 08:26:22;;;;;;;68.70;38.90;;;;;;;2.70;87.16;98280.50;105173;1332;138903;-77
2021/12/30 08:28:48;;;;;;;86.80;43.50;;;;;;;2.74;86.89;98281.88;105118;1327;22568;-78
2021/12/30 08:31:14;;;;;;;105.60;50.20;;;;;;;2.80;86.78;98282.56;104981;1330;22551;-78
2021/12/30 08:33:41;;;;;;;104.70;49.80;;;;;;;2.85;86.68;98280.45;104922;1330;138456;-78
2021/12/30 08:36:07;;;;;;;104.40;49.40;;;;;;;2.88;86.23;98281.54;104999;1333;22248;-78
2021/12/30 08:38:33;;;;;;;96.40;47.10;;;;;;;2.86;85.93;98282.15;104808;1330;138785;-78
2021/12/30 08:41:00;;;;;;;90.90;45.90;;;;;;;2.84;85.79;98281.85;105110;1332;30608;-78
2021/12/30 08:43:26;;;;;;;76.80;40.20;;;;;;;2.86;85.94;98283.77;105334;1327;22687;-78
2021/12/30 08:45:53;;;;;;;67.20;36.60;;;;;;;2.92;86.12;98286.84;105217;1327;138017;-78
2021/12/30 08:48:36;;;;;;;77.60;40.10;;;;;;;3.02;86.02;98292.52;105113;1334;22495;-77
2021/12/30 08:51:03;;;;;;;87.60;43.10;;;;;;;3.13;86.27;98291.45;105225;1333;137713;-77
2021/12/30 08:53:30;;;;;;;65.40;35.80;;;;;;;3.26;86.38;98287.64;105290;1331;22393;-77
2021/12/30 08:55:56;;;;;;;101.90;51.50;;;;;;;3.39;86.07;98290.08;105136;1329;22511;-77
2021/12/30 08:58:23;;;;;;;116.60;59.30;;;;;;;3.47;85.59;98290.60;105173;1328;138161;-77
2021/12/30 09:00:49;;;;;;;91.40;45.90;;;;;;;3.56;85.86;98292.65;105188;1331;23295;-77
2021/12/30 09:03:17;;;;;;;78.80;42.90;;;;;;;3.67;85.67;98298.30;105103;1333;138070;-77
2021/12/30 09:05:44;;;;;;;94.50;47.80;;;;;;;3.74;85.01;98292.59;105186;1327;22462;-77
2021/12/30 09:08:10;;;;;;;95.70;49.20;;;;;;;3.78;84.97;98287.52;105176;1334;22439;-77
2021/12/30 09:10:40;;;;;;;89.40;45.30;;;;;;;3.86;84.97;98292.86;105194;1333;137338;-77
2021/12/30 09:13:08;;;;;;;89.90;50.00;;;;;;;3.91;84.38;98299.04;105230;1327;22440;-77
2021/12/30 09:15:36;;;;;;;90.10;46.40;;;;;;;3.92;83.96;98301.23;105099;1327;137809;-77
2021/12/30 09:18:05;;;;;;;95.70;50.60;;;;;;;3.86;83.61;98305.01;105381;1327;22577;-77
2021/12/30 09:20:31;;;;;;;97.20;52.00;;;;;;;3.82;83.31;98308.14;105157;1327;138607;-76
2021/12/30 09:22:58;;;;;;;90.10;48.00;;;;;;;3.80;83.32;98298.54;105262;1333;22781;-76
2021/12/30 09:25:26;;;;;;;66.80;35.70;;;;;;;3.81;83.71;98296.21;105184;1327;22581;-76
2021/12/30 09:27:55;;;;;;;83.70;44.20;;;;;;;3.85;83.74;98296.59;105128;1327;137659;-76
2021/12/30 09:30:24;;;;;;;72.30;42.00;;;;;;;3.87;83.56;98301.52;105248;1327;23099;-77
2021/12/30 09:32:53;;;;;;;73.90;40.60;;;;;;;3.84;83.24;98308.19;105179;1331;137848;-77
2021/12/30 09:35:19;;;;;;;71.70;41.00;;;;;;;3.82;83.27;98310.63;105235;1331;22677;-77
2021/12/30 09:37:46;;;;;;;73.40;40.70;;;;;;;3.82;83.16;98310.67;105319;1327;22464;-77
2021/12/30 09:40:15;;;;;;;72.70;39.30;;;;;;;3.85;83.40;98302.69;105203;1327;138045;-77
2021/12/30 09:42:45;;;;;;;72.80;40.40;;;;;;;3.88;83.31;98305.87;105176;1331;22988;-77
2021/12/30 09:45:13;;;;;;;83.80;44.70;;;;;;;3.88;83.11;98307.81;105058;1327;138433;-77
2021/12/30 09:47:52;;;;;;;84.50;46.60;;;;;;;3.90;83.41;98299.41;105220;1331;23141;-77
2021/12/30 09:50:20;;;;;;;86.50;50.60;;;;;;;3.95;83.02;98301.61;104951;1330;137602;-77
2021/12/30 09:52:46;;;;;;;95.10;52.30;;;;;;;3.95;83.07;98301.65;105348;1332;23217;-76
2021/12/30 09:55:13;;;;;;;87.90;49.20;;;;;;;4.00;83.39;98295.03;105139;1333;22313;-77
2021/12/30 09:57:40;;;;;;;81.80;41.30;;;;;;;4.09;83.04;98294.65;105262;1333;138134;-76
2021/12/30 10:00:12;;;;;;;76.80;42.30;;;;;;;4.15;83.20;98293.78;105169;1327;23271;-77
2021/12/30 10:02:43;;;;;;;76.90;43.40;;;;;;;4.22;83.16;98287.31;105123;1328;138094;-79
2021/12/30 10:05:16;;;;;;;79.00;45.30;;;;;;;4.26;82.82;98285.64;105258;1332;22259;-80
2021/12/30 10:07:42;;;;;;;77.30;42.90;;;;;;;4.28;82.73;98282.83;105194;1327;22561;-77
2021/12/30 10:10:28;;;;;;;79.90;45.90;;;;;;;4.27;82.26;98281.67;105101;1331;138113;-77
2021/12/30 10:12:59;;;;;;;88.30;47.60;;;;;;;4.29;82.61;98282.33;105306;1327;29869;-77
2021/12/30 10:15:29;;;;;;;81.20;48.10;;;;;;;4.32;82.30;98285.89;105254;1332;138635;-77
2021/12/30 10:18:00;;;;;;;85.50;49.60;;;;;;;4.34;82.31;98291.33;105283;1328;23006;-76
2021/12/30 10:20:29;;;;;;;89.30;49.60;;;;;;;4.37;82.19;98292.27;105126;1333;138067;-76
2021/12/30 10:23:07;;;;;;;82.00;47.80;;;;;;;4.39;82.28;98294.48;105188;1331;22600;-78
2021/12/30 10:25:38;;;;;;;76.30;45.80;;;;;;;4.44;82.23;98297.58;105288;1332;22738;-78
2021/12/30 10:28:30;;;;;;;71.20;43.30;;;;;;;4.51;82.43;98303.84;105054;1331;137744;-77
2021/12/30 10:31:00;;;;;;;75.70;41.40;;;;;;;4.57;82.04;98305.36;105174;1327;22406;-77
2021/12/30 10:33:30;;;;;;;77.80;43.50;;;;;;;4.60;81.96;98303.04;105172;1332;138144;-77
2021/12/30 10:35:57;;;;;;;76.80;43.60;;;;;;;4.61;81.82;98301.58;105165;1333;22514;-77
2021/12/30 10:38:29;;;;;;;75.40;44.10;;;;;;;4.66;82.00;98297.70;105232;1329;138187;-77
2021/12/30 10:41:01;;;;;;;73.30;40.00;;;;;;;4.71;82.11;98300.06;105197;1328;22409;-78
2021/12/30 10:43:38;;;;;;;64.20;38.00;;;;;;;4.75;82.13;98294.29;105057;1332;22521;-77
2021/12/30 10:46:30;;;;;;;63.30;36.20;;;;;;;4.74;82.12;98289.47;105110;1326;139073;-77
2021/12/30 10:49:26;;;;;;;59.30;33.10;;;;;;;4.76;82.40;98284.73;105230;1327;22307;-78
2021/12/30 10:51:56;;;;;;;49.70;30.40;;;;;;;4.79;82.40;98284.23;105116;1327;138000;-78
2021/12/30 10:54:35;;;;;;;51.50;31.40;;;;;;;4.79;82.57;98284.94;105154;1332;23185;-78
2021/12/30 10:57:04;;;;;;;55.10;31.30;;;;;;;4.81;82.56;98285.67;105235;1334;137867;-78
2021/12/30 10:59:32;;;;;;;;;;;;;;;4.79;82.58;98287.46;105387;1327;22768;-78
2021/12/30 11:02:01;;;;;;;52.20;27.60;;;;;;;4.74;82.71;98283.79;105317;1327;23377;-78
2021/12/30 11:04:39;;;;;;;54.90;31.10;;;;;;;4.68;82.84;98284.10;105076;1333;138148;-78
2021/12/30 11:07:07;;;;;;;60.70;32.80;;;;;;;4.62;83.03;98284.02;105196;1331;22346;-78
2021/12/30 11:09:33;;;;;;;54.70;32.00;;;;;;;4.61;83.18;98288.71;105092;1327;138151;-78
2021/12/30 11:12:05;;;;;;;58.40;35.80;;;;;;;4.59;83.30;98288.39;105182;1334;22974;-77
2021/12/30 11:14:35;;;;;;;65.30;37.00;;;;;;;4.54;83.49;98290.83;105081;1332;139195;-77
2021/12/30 11:17:14;;;;;;;67.30;38.90;;;;;;;4.48;83.62;98291.42;105353;1327;22233;-77
2021/12/30 11:19:49;;;;;;;64.50;39.90;;;;;;;4.43;83.63;98293.06;105336;1328;23324;-77